Time;durP1;ratioP1;P1;durP2;ratioP2;P2;SDS_P1;SDS_P2;PMS_P1;PMS_P2;Temp;Humidity;BMP_temperature;BMP_pressure;BME280_temperature;BME280_humidity;BME280_pressure;Samples;Min_cycle;Max_cycle;Signal;HPM_P1;HPM_P2
2023/06/27 00:00:52;;;;;;;19.90;6.70;;;18.30;99.90;;;;;;4886495;29;20036;-71
2023/06/27 00:03:18;;;;;;;13.25;6.05;;;;;;;;;;4866268;29;20092;-71
2023/06/27 00:05:44;;;;;;;19.60;6.95;;;17.10;99.80;;;;;;4898563;29;20469;-71
2023/06/27 00:08:10;;;;;;;19.98;6.97;;;18.30;99.90;;;;;;4896894;29;20123;-71
2023/06/27 00:10:36;;;;;;;17.80;6.95;;;;;;;;;;4878948;29;20121;-71
2023/06/27 00:13:02;;;;;;;16.80;6.40;;;16.80;99.80;;;;;;4873274;29;20389;-72
2023/06/27 00:15:34;;;;;;;19.23;6.60;;;;;;;;;;4883454;29;20036;-72
2023/06/27 00:18:00;;;;;;;12.85;5.78;;;;;;;;;;4866962;29;20040;-71
2023/06/27 00:20:25;;;;;;;19.23;6.20;;;16.70;99.90;;;;;;4867062;29;20080;-71
2023/06/27 00:22:51;;;;;;;18.52;7.32;;;15.90;99.70;;;;;;4881242;29;20045;-71
2023/06/27 00:25:19;;;;;;;15.50;6.10;;;16.60;99.20;;;;;;4881319;29;20040;-71
2023/06/27 00:27:45;;;;;;;15.40;6.68;;;;;;;;;;4881199;29;20036;-71
2023/06/27 00:30:11;;;;;;;15.35;5.97;;;16.10;99.80;;;;;;4890100;29;20036;-71
2023/06/27 00:32:36;;;;;;;14.98;5.68;;;17.10;99.90;;;;;;4881586;29;20108;-71
2023/06/27 00:35:02;;;;;;;17.65;6.47;;;17.90;99.90;;;;;;4895385;29;20075;-71
2023/06/27 00:37:28;;;;;;;15.10;5.85;;;;;;;;;;4893686;29;20115;-71
2023/06/27 00:39:54;;;;;;;13.00;5.90;;;18.00;99.90;;;;;;4882343;29;20036;-69
2023/06/27 00:42:20;;;;;;;19.88;7.07;;;15.90;99.90;;;;;;4884930;29;20098;-70
2023/06/27 00:44:46;;;;;;;15.05;5.97;;;18.10;99.90;;;;;;4895178;29;20048;-69
2023/06/27 00:47:12;;;;;;;17.85;6.10;;;17.00;96.10;;;;;;4888089;29;20041;-70
2023/06/27 00:49:38;;;;;;;20.17;6.05;;;;;;;;;;4886884;29;20116;-70
2023/06/27 00:52:05;;;;;;;13.07;5.45;;;17.40;99.90;;;;;;4888065;29;20048;-70
2023/06/27 00:54:31;;;;;;;17.38;4.80;;;;;;;;;;4867364;29;20045;-70
2023/06/27 00:56:57;;;;;;;13.85;5.00;;;16.90;96.00;;;;;;4898170;29;20044;-71
2023/06/27 00:59:24;;;;;;;15.23;4.57;;;16.00;99.30;;;;;;4868036;29;20044;-71
2023/06/27 01:01:50;;;;;;;17.55;4.28;;;;;;;;;;4867953;29;20044;-70
2023/06/27 01:04:16;;;;;;;22.52;4.57;;;17.20;99.90;;;;;;4871556;29;20048;-70
2023/06/27 01:06:56;;;;;;;14.57;4.63;;;16.00;99.90;;;;;;4881133;29;20040;-70
2023/06/27 01:09:22;;;;;;;22.48;4.72;;;;;;;;;;4896672;29;20123;-70
2023/06/27 01:11:56;;;;;;;15.52;3.97;;;15.80;99.90;;;;;;4885814;29;20032;-70
2023/06/27 01:14:23;;;;;;;16.23;4.00;;;17.90;99.90;;;;;;4901301;29;20046;-70
2023/06/27 01:16:51;;;;;;;14.73;4.07;;;16.80;96.30;;;;;;4899102;29;20100;-70
2023/06/27 01:19:21;;;;;;;15.88;4.32;;;17.70;99.90;;;;;;4884828;29;20489;-70
2023/06/27 01:21:52;;;;;;;12.45;3.97;;;16.80;96.40;;;;;;4868781;29;20127;-70
2023/06/27 01:24:18;;;;;;;16.27;3.75;;;17.00;99.90;;;;;;4884263;29;20048;-70
2023/06/27 01:26:43;;;;;;;9.65;4.13;;;16.40;99.90;;;;;;4875077;29;20039;-70
2023/06/27 01:29:11;;;;;;;14.55;4.47;;;;;;;;;;4900994;29;20062;-70
2023/06/27 01:31:49;;;;;;;12.25;4.00;;;17.90;99.90;;;;;;4877989;29;20055;-70
2023/06/27 01:34:36;;;;;;;14.82;4.78;;;17.50;99.90;;;;;;4868400;29;20068;-70
2023/06/27 01:37:25;;;;;;;11.70;3.80;;;15.90;99.90;;;;;;4869469;29;20092;-70
2023/06/27 01:40:08;;;;;;;10.52;3.22;;;17.70;99.90;;;;;;4897171;29;20040;-70
2023/06/27 01:42:41;;;;;;;11.15;3.60;;;16.60;99.90;;;;;;4882424;29;20040;-70
2023/06/27 01:45:06;;;;;;;;;;;;;;;;;;4875497;29;20430;-70
2023/06/27 01:47:35;;;;;;;21.13;4.10;;;16.70;99.90;;;;;;4868027;29;19975;-70
2023/06/27 01:50:02;;;;;;;18.30;3.97;;;16.70;97.00;;;;;;4872163;29;20067;-70
2023/06/27 01:52:28;;;;;;;14.65;3.97;;;;;;;;;;4894329;29;20045;-70
2023/06/27 01:54:54;;;;;;;11.02;4.63;;;17.30;99.90;;;;;;4883586;29;20080;-70
2023/06/27 01:57:19;;;;;;;11.18;4.55;;;15.70;99.90;;;;;;4868329;29;20098;-70
2023/06/27 01:59:45;;;;;;;11.52;4.00;;;17.40;99.90;;;;;;4879507;29;20486;-70
2023/06/27 02:02:11;;;;;;;17.67;5.35;;;15.70;99.90;;;;;;4883916;29;20041;-70
2023/06/27 02:04:37;;;;;;;21.75;3.78;;;;;;;;;;4882960;29;20052;-70
2023/06/27 02:07:03;;;;;;;19.38;4.28;;;17.70;99.90;;;;;;4883833;29;20397;-70
2023/06/27 02:09:29;;;;;;;21.38;4.45;;;;;;;;;;4868123;29;20032;-70
2023/06/27 02:11:55;;;;;;;13.50;4.13;;;15.50;99.90;;;;;;4879506;29;20040;-70
2023/06/27 02:14:21;;;;;;;13.18;4.20;;;;;;;;;;4898141;29;20091;-70
2023/06/27 02:16:47;;;;;;;18.38;4.53;;;;;;;;;;4917180;29;20083;-70
2023/06/27 02:19:13;;;;;;;19.80;4.22;;;;;;;;;;4893326;29;20048;-70
2023/06/27 02:21:39;;;;;;;15.57;4.20;;;;;;;;;;4883457;29;20052;-72
2023/06/27 02:24:05;;;;;;;17.02;4.55;;;;;;;;;;4884132;29;20502;-72
2023/06/27 02:26:31;;;;;;;17.30;4.10;;;17.60;99.90;;;;;;4886325;29;20044;-72
2023/06/27 02:28:57;;;;;;;19.60;4.43;;;15.60;99.90;;;;;;4900115;29;20389;-71
2023/06/27 02:31:23;;;;;;;15.63;4.25;;;;;;;;;;4882944;29;20481;-70
2023/06/27 02:33:49;;;;;;;19.98;5.45;;;;;;;;;;4884392;29;20052;-70
2023/06/27 02:36:16;;;;;;;13.48;4.30;;;;;;;;;;4880693;29;20037;-70
2023/06/27 02:38:42;;;;;;;14.32;4.10;;;;;;;;;;4887634;29;20489;-72
2023/06/27 02:41:07;;;;;;;15.15;4.35;;;17.20;99.90;;;;;;4882717;29;20045;-72
2023/06/27 02:43:34;;;;;;;17.13;4.57;;;17.20;99.90;;;;;;4855561;29;20036;-72
2023/06/27 02:46:00;;;;;;;20.02;4.78;;;;;;;;;;4884042;29;20052;-72
2023/06/27 02:48:26;;;;;;;15.55;3.88;;;;;;;;;;4889946;29;20037;-72
2023/06/27 02:50:52;;;;;;;13.55;4.22;;;16.20;99.90;;;;;;4883026;29;20124;-72
2023/06/27 02:53:18;;;;;;;13.35;4.35;;;15.50;99.90;;;;;;4868472;29;20500;-72
2023/06/27 02:55:43;;;;;;;12.68;4.25;;;16.10;99.90;;;;;;4899573;29;20044;-71
2023/06/27 02:58:10;;;;;;;14.73;4.60;;;;;;;;;;4878724;29;20499;-72
2023/06/27 03:00:36;;;;;;;20.42;4.88;;;;;;;;;;4867510;29;20080;-71
2023/06/27 03:03:01;;;;;;;16.55;4.00;;;16.60;99.90;;;;;;4898078;29;20041;-70
2023/06/27 03:05:28;;;;;;;18.73;4.70;;;;;;;;;;4894116;29;20051;-71
2023/06/27 03:07:54;;;;;;;17.27;4.70;;;;;;;;;;4897090;29;20070;-71
2023/06/27 03:10:20;;;;;;;18.80;4.40;;;;;;;;;;4855248;29;20084;-71
2023/06/27 03:12:46;;;;;;;15.05;4.65;;;;;;;;;;4886752;29;20385;-71
2023/06/27 03:15:12;;;;;;;15.85;4.38;;;;;;;;;;4889224;29;20043;-72
2023/06/27 03:17:38;;;;;;;11.68;4.95;;;;;;;;;;4886104;29;20036;-72
2023/06/27 03:20:04;;;;;;;15.30;5.53;;;16.60;98.40;;;;;;4888626;29;20040;-71
2023/06/27 03:22:30;;;;;;;17.48;4.35;;;;;;;;;;4889691;29;20052;-71
2023/06/27 03:24:56;;;;;;;22.42;4.90;;;;;;;;;;4881868;29;20041;-71
2023/06/27 03:27:26;;;;;;;18.55;5.43;;;;;;;;;;4879665;29;20045;-71
2023/06/27 03:29:53;;;;;;;17.42;5.20;;;;;;;;;;4897620;29;20151;-71
2023/06/27 03:32:19;;;;;;;17.30;5.40;;;;;;;;;;4896484;29;20560;-72
2023/06/27 03:34:47;;;;;;;21.40;4.78;;;;;;;;;;4881752;29;20040;-72
2023/06/27 03:37:13;;;;;;;21.15;5.30;;;;;;;;;;4883702;29;20039;-72
2023/06/27 03:39:39;;;;;;;19.67;5.10;;;15.70;99.90;;;;;;4890483;29;20068;-72
2023/06/27 03:42:05;;;;;;;16.65;4.93;;;;;;;;;;4869182;29;20064;-72
2023/06/27 03:44:31;;;;;;;18.50;4.90;;;;;;;;;;4884020;29;20052;-72
2023/06/27 03:46:57;;;;;;;18.95;4.80;;;;;;;;;;4893228;29;20054;-72
2023/06/27 03:49:23;;;;;;;14.20;4.18;;;;;;;;;;4889504;29;20051;-72
2023/06/27 03:51:50;;;;;;;18.10;5.10;;;;;;;;;;4912065;29;20528;-72
2023/06/27 03:54:16;;;;;;;15.43;4.47;;;;;;;;;;4882337;29;20040;-72
2023/06/27 03:56:42;;;;;;;22.42;5.78;;;;;;;;;;4885431;29;20135;-72
2023/06/27 03:59:08;;;;;;;18.60;4.88;;;;;;;;;;4886500;29;20124;-72
2023/06/27 04:01:34;;;;;;;13.27;4.38;;;;;;;;;;4888334;29;20043;-72
2023/06/27 04:04:01;;;;;;;23.92;5.82;;;;;;;;;;4876686;29;20181;-72
2023/06/27 04:06:27;;;;;;;21.15;5.20;;;;;;;;;;4889758;29;20044;-72
2023/06/27 04:08:53;;;;;;;22.73;4.32;;;;;;;;;;4887875;29;20048;-72
2023/06/27 04:11:19;;;;;;;18.20;4.32;;;;;;;;;;4896751;29;20123;-72
2023/06/27 04:13:45;;;;;;;18.95;4.88;;;;;;;;;;4863238;29;20405;-72
2023/06/27 04:16:11;;;;;;;18.95;4.90;;;;;;;;;;4881459;29;20044;-72
2023/06/27 04:18:37;;;;;;;20.73;4.97;;;;;;;;;;4866139;29;20418;-72
2023/06/27 04:21:03;;;;;;;18.48;4.78;;;;;;;;;;4866420;29;20044;-72
2023/06/27 04:23:29;;;;;;;19.17;4.30;;;;;;;;;;4881389;29;20104;-72
2023/06/27 04:26:04;;;;;;;15.32;4.80;;;16.50;99.80;;;;;;4884188;29;20494;-72
2023/06/27 04:28:34;;;;;;;21.52;5.30;;;17.50;99.90;;;;;;4897363;29;20421;-72
2023/06/27 04:31:01;;;;;;;19.90;4.43;;;16.60;99.50;;;;;;4897089;29;20057;-72
2023/06/27 04:33:27;;;;;;;21.98;4.68;;;;;;;;;;4882817;29;20037;-72
2023/06/27 04:36:00;;;;;;;20.60;4.50;;;16.70;99.60;;;;;;4868411;29;20037;-72
2023/06/27 04:38:29;;;;;;;20.35;4.03;;;16.60;99.60;;;;;;4879799;29;20532;-72
2023/06/27 04:40:55;;;;;;;15.48;4.03;;;;;;;;;;4883756;29;20119;-72
2023/06/27 04:43:21;;;;;;;22.85;5.53;;;;;;;;;;4888931;29;20493;-72
2023/06/27 04:45:47;;;;;;;19.38;4.95;;;;;;;;;;4878662;29;20396;-72
2023/06/27 04:48:13;;;;;;;16.70;3.78;;;;;;;;;;4872875;29;20040;-72
2023/06/27 04:50:39;;;;;;;20.52;4.78;;;;;;;;;;4883558;29;20059;-72
2023/06/27 04:53:05;;;;;;;26.92;4.32;;;15.70;99.90;;;;;;4874199;29;20045;-72
2023/06/27 04:55:32;;;;;;;26.20;4.45;;;17.70;99.90;;;;;;4892561;29;20602;-72
2023/06/27 04:57:58;;;;;;;16.13;4.97;;;;;;;;;;4875031;29;20032;-72
2023/06/27 05:00:24;;;;;;;14.88;3.67;;;;;;;;;;4890500;29;20043;-72
2023/06/27 05:02:50;;;;;;;20.60;5.22;;;;;;;;;;4893523;29;20133;-72
2023/06/27 05:05:17;;;;;;;26.02;4.55;;;;;;;;;;4896010;29;20044;-72
2023/06/27 05:07:43;;;;;;;18.73;5.00;;;;;;;;;;4894200;29;20044;-72
2023/06/27 05:10:09;;;;;;;13.95;3.75;;;;;;;;;;4895954;29;20134;-71
2023/06/27 05:12:35;;;;;;;19.20;4.90;;;;;;;;;;4891572;29;20409;-71
2023/06/27 05:15:01;;;;;;;29.52;4.30;;;;;;;;;;4884525;29;20068;-72
2023/06/27 05:17:27;;;;;;;24.45;4.40;;;;;;;;;;4889038;29;20051;-72
2023/06/27 05:19:53;;;;;;;20.33;3.97;;;;;;;;;;4871838;29;20036;-71
2023/06/27 05:22:19;;;;;;;29.65;3.83;;;;;;;;;;4886154;29;20036;-72
2023/06/27 05:24:45;;;;;;;15.48;4.20;;;;;;;;;;4893299;29;20063;-70
2023/06/27 05:27:11;;;;;;;17.50;3.65;;;;;;;;;;4869967;29;20426;-71
2023/06/27 05:29:37;;;;;;;20.23;3.17;;;;;;;;;;4900989;29;20131;-72
2023/06/27 05:32:03;;;;;;;18.55;3.70;;;17.70;99.90;;;;;;4900945;29;20477;-72
2023/06/27 05:34:29;;;;;;;32.78;3.95;;;18.10;99.90;;;;;;4874943;29;20051;-71
2023/06/27 05:36:55;;;;;;;26.52;4.00;;;16.70;99.90;;;;;;4888041;29;20037;-71
2023/06/27 05:39:21;;;;;;;12.45;4.15;;;;;;;;;;4884794;29;20066;-71
2023/06/27 05:41:47;;;;;;;27.83;5.15;;;;;;;;;;4868716;29;20438;-71
2023/06/27 05:44:13;;;;;;;17.83;3.38;;;;;;;;;;4896719;29;20040;-71
2023/06/27 05:46:39;;;;;;;16.92;2.88;;;;;;;;;;4897101;29;20100;-71
2023/06/27 05:49:07;;;;;;;18.00;3.42;;;;;;;;;;4889953;29;20442;-72
2023/06/27 05:51:33;;;;;;;15.80;3.67;;;;;;;;;;4891765;29;20387;-71
2023/06/27 05:53:59;;;;;;;23.17;3.30;;;18.70;99.90;;;;;;4862340;29;20036;-71
2023/06/27 05:56:25;;;;;;;17.52;3.40;;;;;;;;;;4874558;29;20056;-70
2023/06/27 05:58:51;;;;;;;22.15;3.45;;;;;;;;;;4892502;29;20043;-70
2023/06/27 06:01:17;;;;;;;11.93;2.90;;;;;;;;;;4886461;29;20048;-71
2023/06/27 06:03:43;;;;;;;18.25;2.85;;;;;;;;;;4891523;29;20040;-71
2023/06/27 06:06:11;;;;;;;14.50;3.03;;;17.80;99.90;;;;;;4888869;29;20610;-70
2023/06/27 06:08:37;;;;;;;15.25;2.67;;;;;;;;;;4872761;29;20044;-70
2023/06/27 06:11:03;;;;;;;20.27;3.17;;;;;;;;;;4869647;29;20115;-70
2023/06/27 06:13:29;;;;;;;22.80;3.20;;;;;;;;;;4898534;29;20077;-70
2023/06/27 06:15:55;;;;;;;24.13;2.90;;;;;;;;;;4885377;29;20068;-70
2023/06/27 06:18:22;;;;;;;15.07;2.38;;;19.20;99.90;;;;;;4872476;29;20044;-70
2023/06/27 06:20:47;;;;;;;12.30;2.40;;;18.70;99.90;;;;;;4891560;29;20052;-70
2023/06/27 06:23:13;;;;;;;15.20;2.78;;;17.50;99.90;;;;;;4888970;29;20037;-70
2023/06/27 06:25:39;;;;;;;19.13;2.78;;;19.30;99.90;;;;;;4876725;29;20040;-70
2023/06/27 06:28:05;;;;;;;14.30;2.63;;;;;;;;;;4888199;29;20536;-70
2023/06/27 06:30:30;;;;;;;15.68;2.67;;;18.40;97.50;;;;;;4887832;29;20040;-70
2023/06/27 06:32:57;;;;;;;24.77;2.47;;;;;;;;;;4896154;29;20115;-70
2023/06/27 06:35:23;;;;;;;12.55;2.55;;;;;;;;;;4896975;29;20032;-71
2023/06/27 06:37:48;;;;;;;15.15;2.70;;;18.80;99.90;;;;;;4898644;29;20372;-70
2023/06/27 06:40:14;;;;;;;11.38;2.20;;;;;;;;;;4894284;29;20036;-70
2023/06/27 06:42:40;;;;;;;13.70;2.67;;;;;;;;;;4854640;29;20047;-71
2023/06/27 06:45:08;;;;;;;19.38;2.50;;;19.00;99.90;;;;;;4894288;29;20510;-71
2023/06/27 06:47:35;;;;;;;13.20;2.08;;;;;;;;;;4895474;29;20072;-71
2023/06/27 06:50:00;;;;;;;13.50;2.40;;;19.80;99.30;;;;;;4890795;29;20428;-71
2023/06/27 06:52:26;;;;;;;14.57;2.30;;;;;;;;;;4895576;29;20056;-69
2023/06/27 06:54:52;;;;;;;18.23;2.25;;;20.10;99.40;;;;;;4897883;29;20571;-70
2023/06/27 06:57:18;;;;;;;16.17;2.50;;;20.20;99.70;;;;;;4884702;29;20048;-69
2023/06/27 06:59:44;;;;;;;11.77;2.30;;;;;;;;;;4877487;29;20169;-70
2023/06/27 07:02:10;;;;;;;18.00;2.20;;;;;;;;;;4876045;29;20152;-70
2023/06/27 07:04:36;;;;;;;11.93;2.20;;;20.00;96.30;;;;;;4894600;29;20071;-70
2023/06/27 07:07:02;;;;;;;6.97;1.90;;;;;;;;;;4885875;29;20500;-70
2023/06/27 07:09:28;;;;;;;11.43;2.15;;;;;;;;;;4893574;29;20175;-70
2023/06/27 07:11:54;;;;;;;10.40;2.20;;;19.60;97.50;;;;;;4886508;29;20083;-70
2023/06/27 07:14:20;;;;;;;13.07;2.15;;;;;;;;;;4876630;29;20138;-69
2023/06/27 07:16:46;;;;;;;9.68;1.80;;;19.20;99.20;;;;;;4883296;29;20102;-70
2023/06/27 07:19:12;;;;;;;14.45;2.38;;;18.50;98.80;;;;;;4868207;29;20495;-70
2023/06/27 07:21:38;;;;;;;9.63;2.00;;;20.30;96.00;;;;;;4886124;29;20088;-71
2023/06/27 07:24:05;;;;;;;11.63;2.03;;;18.60;95.00;;;;;;4866696;29;20048;-71
2023/06/27 07:26:31;;;;;;;10.70;2.05;;;;;;;;;;4878502;29;20386;-70
2023/06/27 07:28:57;;;;;;;12.32;2.20;;;20.20;96.30;;;;;;4858179;29;20116;-70
2023/06/27 07:31:23;;;;;;;11.77;3.28;;;19.40;94.80;;;;;;4884078;29;20076;-70
2023/06/27 07:33:49;;;;;;;11.73;2.30;;;19.50;96.60;;;;;;4896776;29;20044;-70
2023/06/27 07:36:15;;;;;;;8.07;1.98;;;;;;;;;;4884434;29;20052;-71
2023/06/27 07:38:41;;;;;;;14.85;2.20;;;;;;;;;;4881296;29;20059;-75
2023/06/27 07:41:07;;;;;;;14.40;2.03;;;19.70;96.00;;;;;;4881636;29;20405;-72
2023/06/27 07:43:33;;;;;;;11.05;2.05;;;;;;;;;;4881729;29;20058;-72
2023/06/27 07:45:59;;;;;;;9.80;1.83;;;19.40;95.60;;;;;;4881793;29;20052;-72
2023/06/27 07:48:25;;;;;;;9.50;1.80;;;;;;;;;;4881574;29;20557;-72
2023/06/27 07:50:51;;;;;;;15.18;2.10;;;;;;;;;;4881295;29;20497;-72
2023/06/27 07:53:17;;;;;;;11.88;2.20;;;20.30;96.90;;;;;;4881570;29;20058;-72
2023/06/27 07:55:43;;;;;;;10.77;2.17;;;;;;;;;;4881471;29;20036;-72
2023/06/27 07:58:09;;;;;;;13.63;1.95;;;19.00;95.10;;;;;;4881862;29;20048;-72
2023/06/27 08:00:35;;;;;;;11.00;1.92;;;18.50;97.50;;;;;;4866189;29;20041;-72
2023/06/27 08:03:02;;;;;;;10.02;2.17;;;;;;;;;;4865984;29;20095;-72
2023/06/27 08:05:31;;;;;;;7.55;1.52;;;;;;;;;;4881870;29;20052;-72
2023/06/27 08:07:57;;;;;;;9.88;1.73;;;18.70;98.90;;;;;;4866265;29;20107;-72
2023/06/27 08:10:25;;;;;;;9.18;1.80;;;20.50;99.20;;;;;;4866032;29;20524;-72
2023/06/27 08:12:51;;;;;;;11.70;1.80;;;19.30;98.80;;;;;;4865944;29;20040;-72
2023/06/27 08:15:17;;;;;;;13.75;1.77;;;;;;;;;;4866153;29;20051;-72
2023/06/27 08:17:43;;;;;;;7.97;1.60;;;18.90;98.10;;;;;;4883936;29;20438;-71
2023/06/27 08:20:09;;;;;;;7.82;1.55;;;20.30;98.10;;;;;;4872150;29;20044;-72
2023/06/27 08:22:35;;;;;;;6.93;2.33;;;;;;;;;;4887395;29;20107;-72
2023/06/27 08:25:01;;;;;;;9.82;1.88;;;19.10;97.80;;;;;;4887703;29;20087;-72
2023/06/27 08:27:26;;;;;;;25.52;3.20;;;20.70;98.10;;;;;;4887005;29;20084;-71
2023/06/27 08:29:52;;;;;;;14.80;1.80;;;19.10;97.60;;;;;;4871907;29;20049;-72
2023/06/27 08:32:18;;;;;;;12.75;1.67;;;20.50;97.30;;;;;;4874541;29;20084;-72
2023/06/27 08:34:44;;;;;;;7.75;1.67;;;;;;;;;;4868707;29;20132;-72
2023/06/27 08:37:10;;;;;;;10.57;1.98;;;20.90;96.60;;;;;;4853613;29;20455;-72
2023/06/27 08:39:36;;;;;;;5.07;1.40;;;20.60;97.00;;;;;;4868747;29;20402;-72
2023/06/27 08:42:02;;;;;;;5.60;1.80;;;20.90;96.90;;;;;;4869049;29;20037;-72
2023/06/27 08:44:28;;;;;;;8.85;1.80;;;19.40;96.30;;;;;;4853767;29;20393;-72
2023/06/27 08:46:58;;;;;;;8.15;1.95;;;20.80;96.60;;;;;;4868781;29;20131;-72
2023/06/27 08:49:27;;;;;;;6.05;1.50;;;19.30;96.30;;;;;;4868822;29;20052;-73
2023/06/27 08:51:56;;;;;;;14.35;2.13;;;19.10;96.30;;;;;;4868368;29;20418;-73
2023/06/27 08:54:44;;;;;;;8.80;1.60;;;20.40;96.50;;;;;;4868629;29;20047;-72
2023/06/27 08:57:11;;;;;;;9.27;1.70;;;;;;;;;;4868652;29;20105;-72
2023/06/27 08:59:37;;;;;;;9.73;2.08;;;21.00;92.70;;;;;;4853707;29;20081;-72
2023/06/27 09:02:06;;;;;;;8.25;1.60;;;20.50;96.20;;;;;;4853088;29;20081;-72
2023/06/27 09:04:35;;;;;;;10.02;1.60;;;19.10;96.10;;;;;;4868789;29;20059;-70
2023/06/27 09:07:03;;;;;;;9.80;1.50;;;20.10;96.40;;;;;;4868609;29;20052;-71
2023/06/27 09:09:30;;;;;;;4.72;1.48;;;20.80;96.30;;;;;;4868871;29;20105;-70
2023/06/27 09:12:00;;;;;;;8.45;1.77;;;20.10;92.20;;;;;;4868362;29;20060;-70
2023/06/27 09:14:26;;;;;;;9.93;1.75;;;21.00;95.90;;;;;;4868432;29;20092;-70
2023/06/27 09:16:52;;;;;;;14.45;1.77;;;21.30;95.90;;;;;;4868673;29;20458;-70
2023/06/27 09:19:20;;;;;;;11.00;1.92;;;21.10;95.90;;;;;;4853377;29;20455;-70
2023/06/27 09:21:48;;;;;;;12.00;2.20;;;19.70;95.30;;;;;;4868688;29;20397;-70
2023/06/27 09:24:14;;;;;;;6.10;1.48;;;20.90;95.30;;;;;;4868486;29;20053;-70
2023/06/27 09:26:41;;;;;;;10.43;1.63;;;19.60;95.00;;;;;;4841954;29;20045;-70
2023/06/27 09:29:07;;;;;;;8.52;1.80;;;20.20;95.10;;;;;;4868928;29;20060;-70
2023/06/27 09:31:33;;;;;;;11.32;2.08;;;21.60;94.10;;;;;;4883692;29;20044;-70
2023/06/27 09:34:09;;;;;;;9.95;2.25;;;21.60;95.60;;;;;;4884275;29;20051;-69
2023/06/27 09:36:39;;;;;;;9.25;1.75;;;21.40;95.60;;;;;;4883782;29;20075;-70
2023/06/27 09:39:15;;;;;;;11.45;1.80;;;20.90;95.30;;;;;;4884195;29;20068;-70
2023/06/27 09:41:41;;;;;;;8.25;1.60;;;20.80;95.30;;;;;;4883562;29;20079;-70
2023/06/27 09:44:26;;;;;;;22.33;2.75;;;21.60;93.20;;;;;;4883836;29;20076;-70
2023/06/27 09:46:52;;;;;;;9.85;1.48;;;21.50;94.50;;;;;;4883728;29;20044;-70
2023/06/27 09:49:19;;;;;;;7.70;1.70;;;20.70;94.90;;;;;;4868280;29;20044;-70
2023/06/27 09:51:46;;;;;;;9.77;1.67;;;21.10;94.30;;;;;;4883348;29;20084;-70
2023/06/27 09:54:13;;;;;;;7.72;2.08;;;20.90;94.00;;;;;;4883407;29;20095;-70
2023/06/27 09:56:39;;;;;;;12.48;1.95;;;21.20;93.90;;;;;;4883439;29;20100;-70
2023/06/27 09:59:11;;;;;;;9.60;1.85;;;20.60;93.70;;;;;;4900633;29;20048;-70
2023/06/27 10:01:39;;;;;;;8.43;1.60;;;21.40;93.60;;;;;;4886949;29;20058;-70
2023/06/27 10:04:06;;;;;;;10.90;2.00;;;21.20;89.00;;;;;;4868137;29;20394;-70
2023/06/27 10:06:32;;;;;;;9.63;1.80;;;21.10;93.00;;;;;;4882598;29;20077;-70
2023/06/27 10:08:58;;;;;;;8.25;1.90;;;20.50;92.60;;;;;;4867723;29;20056;-70
2023/06/27 10:11:25;;;;;;;12.40;2.08;;;22.30;93.10;;;;;;4883133;29;20184;-70
2023/06/27 10:13:51;;;;;;;10.27;2.28;;;21.70;87.80;;;;;;4882262;29;20370;-70
2023/06/27 10:16:17;;;;;;;11.20;1.98;;;22.30;91.50;;;;;;4883129;29;20052;-70
2023/06/27 10:18:43;;;;;;;9.23;2.28;;;21.70;93.00;;;;;;4883131;29;20044;-70
2023/06/27 10:21:10;;;;;;;6.65;1.80;;;21.80;93.10;;;;;;4883229;29;20048;-70
2023/06/27 10:23:39;;;;;;;7.72;1.45;;;22.20;89.40;;;;;;4883167;29;20055;-70
2023/06/27 10:26:05;;;;;;;12.02;2.22;;;21.90;93.20;;;;;;4883195;29;20053;-70
2023/06/27 10:28:30;;;;;;;10.90;2.03;;;21.20;93.00;;;;;;4882963;29;20050;-69
2023/06/27 10:30:56;;;;;;;7.88;1.80;;;21.50;92.90;;;;;;4883083;29;20146;-68
2023/06/27 10:33:31;;;;;;;12.13;2.20;;;21.30;92.70;;;;;;4882927;29;20495;-69
2023/06/27 10:36:08;;;;;;;7.40;1.50;;;21.70;91.80;;;;;;4883202;29;20048;-69
2023/06/27 10:38:36;;;;;;;6.10;1.50;;;22.10;86.80;;;;;;4883029;29;20067;-69
2023/06/27 10:41:06;;;;;;;11.68;1.92;;;22.50;92.40;;;;;;4882537;29;20087;-69
2023/06/27 10:43:36;;;;;;;8.30;1.95;;;22.10;92.40;;;;;;4882885;29;20512;-69
2023/06/27 10:46:07;;;;;;;8.43;2.13;;;20.80;90.40;;;;;;4882634;29;20040;-68
2023/06/27 10:48:34;;;;;;;9.57;2.17;;;21.50;92.70;;;;;;4882363;29;20056;-69
2023/06/27 10:51:05;;;;;;;8.27;1.42;;;22.30;93.00;;;;;;4866380;29;20061;-69
2023/06/27 10:53:31;;;;;;;7.43;2.07;;;21.50;92.80;;;;;;4882864;29;20072;-71
2023/06/27 10:55:57;;;;;;;7.13;2.00;;;22.30;92.70;;;;;;4863841;29;20278;-69
2023/06/27 10:58:26;;;;;;;10.88;1.90;;;22.30;92.50;;;;;;4848592;29;20087;-68
2023/06/27 11:00:52;;;;;;;12.15;2.15;;;21.70;91.70;;;;;;4863846;29;20048;-69
2023/06/27 11:03:19;;;;;;;11.93;1.58;;;22.30;92.10;;;;;;4867718;29;20041;-69
2023/06/27 11:05:51;;;;;;;9.73;1.40;;;20.90;91.60;;;;;;4885059;29;20107;-69
2023/06/27 11:08:19;;;;;;;7.45;2.67;;;22.00;91.50;;;;;;4896389;29;20079;-69
2023/06/27 11:10:50;;;;;;;8.55;1.92;;;20.90;91.20;;;;;;4883633;29;20057;-69
2023/06/27 11:13:21;;;;;;;6.45;1.95;;;21.90;85.30;;;;;;4893612;29;20080;-69
2023/06/27 11:15:48;;;;;;;8.38;1.70;;;22.40;92.00;;;;;;4886510;29;20068;-68
2023/06/27 11:18:18;;;;;;;8.95;1.63;;;21.10;90.70;;;;;;4887299;29;20044;-70
2023/06/27 11:20:45;;;;;;;10.77;1.77;;;22.70;91.30;;;;;;4873404;29;20052;-69
2023/06/27 11:23:15;;;;;;;8.98;1.70;;;22.50;90.60;;;;;;4885341;29;20183;-69
2023/06/27 11:25:43;;;;;;;8.90;1.80;;;22.50;90.80;;;;;;4882179;29;20048;-69
2023/06/27 11:28:12;;;;;;;5.90;1.50;;;22.90;90.60;;;;;;4894178;29;20507;-68
2023/06/27 11:30:39;;;;;;;10.32;1.85;;;23.00;90.40;;;;;;4908004;29;20045;-69
2023/06/27 11:33:06;;;;;;;9.38;2.13;;;22.20;90.30;;;;;;4892970;29;20055;-68
2023/06/27 11:35:32;;;;;;;8.40;2.40;;;23.00;90.50;;;;;;4864111;29;20389;-68
2023/06/27 11:37:59;;;;;;;11.25;1.83;;;22.20;89.90;;;;;;4891322;29;20480;-68
2023/06/27 11:40:25;;;;;;;7.88;1.75;;;22.60;90.00;;;;;;4882005;29;20076;-68
2023/06/27 11:42:58;;;;;;;11.95;1.92;;;22.60;90.10;;;;;;4885621;29;20390;-73
2023/06/27 11:45:25;;;;;;;7.13;1.95;;;22.30;89.60;;;;;;4865806;29;20051;-69
2023/06/27 11:47:53;;;;;;;10.50;2.33;;;22.00;88.20;;;;;;4889165;29;20055;-69
2023/06/27 11:50:19;;;;;;;4.07;1.23;;;;;;;;;;4899518;29;20135;-70
2023/06/27 11:52:47;;;;;;;6.97;1.73;;;23.40;86.40;;;;;;4872054;29;20151;-69
2023/06/27 11:55:13;;;;;;;6.72;1.60;;;22.40;86.20;;;;;;4900367;29;20142;-69
2023/06/27 11:57:51;;;;;;;9.77;1.58;;;22.70;86.50;;;;;;4879530;29;20507;-69
2023/06/27 12:00:20;;;;;;;6.13;1.75;;;23.50;78.10;;;;;;4890732;29;20045;-68
2023/06/27 12:02:57;;;;;;;12.35;1.88;;;23.30;85.00;;;;;;4893026;29;20048;-68
2023/06/27 12:05:24;;;;;;;8.05;1.52;;;22.80;84.50;;;;;;4881609;29;20044;-68
2023/06/27 12:08:07;;;;;;;11.57;1.85;;;22.50;84.80;;;;;;4871270;29;20489;-68
2023/06/27 12:10:50;;;;;;;16.65;2.60;;;23.70;87.10;;;;;;4892315;29;20156;-68
2023/06/27 12:13:16;;;;;;;13.25;2.03;;;23.80;88.20;;;;;;4881131;29;20047;-68
2023/06/27 12:15:46;;;;;;;9.45;2.25;;;22.70;86.50;;;;;;4881701;29;20040;-68
2023/06/27 12:18:30;;;;;;;8.75;1.73;;;22.90;76.00;;;;;;4881507;29;20481;-69
2023/06/27 12:20:57;;;;;;;12.65;2.03;;;23.20;88.30;;;;;;4881457;29;20548;-69
2023/06/27 12:23:26;;;;;;;13.68;1.70;;;23.40;89.70;;;;;;4895471;29;20044;-69
2023/06/27 12:25:51;;;;;;;13.45;2.03;;;22.50;89.70;;;;;;4884543;29;20100;-70
2023/06/27 12:28:18;;;;;;;11.65;1.80;;;23.30;90.10;;;;;;4887201;29;20124;-68
2023/06/27 12:30:44;;;;;;;15.60;2.22;;;22.10;81.40;;;;;;4881440;29;20036;-69
2023/06/27 12:33:10;;;;;;;9.10;2.15;;;22.30;84.80;;;;;;4865895;29;20045;-69
2023/06/27 12:35:35;;;;;;;10.35;2.00;;;23.20;89.60;;;;;;4881258;29;20037;-69
2023/06/27 12:38:01;;;;;;;11.75;1.80;;;21.60;87.30;;;;;;4866994;29;20080;-69
2023/06/27 12:40:27;;;;;;;8.23;2.05;;;22.60;87.90;;;;;;4865873;29;20444;-70
2023/06/27 12:42:53;;;;;;;15.18;1.88;;;21.80;88.10;;;;;;4881071;29;20057;-70
2023/06/27 12:45:20;;;;;;;8.88;1.60;;;21.90;79.20;;;;;;4881260;29;20064;-70
2023/06/27 12:47:46;;;;;;;9.30;1.83;;;23.00;90.00;;;;;;4891908;29;20078;-70
2023/06/27 12:50:17;;;;;;;14.65;2.28;;;22.30;81.40;;;;;;4892053;29;20135;-70
2023/06/27 12:52:48;;;;;;;10.98;1.77;;;21.30;89.30;;;;;;4873107;29;20557;-70
2023/06/27 12:55:15;;;;;;;11.70;2.03;;;22.40;81.30;;;;;;4881291;29;20069;-70
2023/06/27 12:57:41;;;;;;;8.23;1.90;;;21.60;89.60;;;;;;4884996;29;20123;-70
2023/06/27 13:00:09;;;;;;;9.00;2.38;;;;;;;;;;4883804;29;20393;-70
2023/06/27 13:02:38;;;;;;;8.05;1.90;;;21.50;89.00;;;;;;4899478;29;20393;-70
2023/06/27 13:05:07;;;;;;;5.47;1.63;;;22.70;87.40;;;;;;4867631;29;20060;-70
2023/06/27 13:07:34;;;;;;;10.80;2.25;;;22.50;90.30;;;;;;4869601;29;20516;-70
2023/06/27 13:10:01;;;;;;;11.10;1.90;;;21.70;90.30;;;;;;4902349;29;20044;-70
2023/06/27 13:12:27;;;;;;;11.18;2.13;;;22.30;90.60;;;;;;4901691;29;20084;-70
2023/06/27 13:14:53;;;;;;;13.20;2.05;;;22.70;91.00;;;;;;4884611;29;20087;-70
2023/06/27 13:17:19;;;;;;;12.63;2.25;;;22.30;91.10;;;;;;4868543;29;20478;-70